sensor_id;sensor_type;location;lat;lon;timestamp;pressure;altitude;pressure_sealevel;temperature;humidity
56630;BME280;42502;40.732;-74.254;2023-07-02T00:01:14;100572.28;;;31.38;39.79
56630;BME280;42502;40.732;-74.254;2023-07-02T00:03:15;100567.38;;;31.39;39.99
56630;BME280;42502;40.732;-74.254;2023-07-02T00:05:16;100564.56;;;31.35;40.25
56630;BME280;42502;40.732;-74.254;2023-07-02T00:07:18;100573.91;;;31.39;39.77
56630;BME280;42502;40.732;-74.254;2023-07-02T00:09:21;100570.69;;;31.37;39.87
56630;BME280;42502;40.732;-74.254;2023-07-02T00:11:22;100571.47;;;31.38;39.87
56630;BME280;42502;40.732;-74.254;2023-07-02T00:13:23;100575.13;;;31.38;39.84
56630;BME280;42502;40.732;-74.254;2023-07-02T00:15:24;100572.28;;;31.38;39.99
56630;BME280;42502;40.732;-74.254;2023-07-02T00:17:25;100569.84;;;31.36;40.23
56630;BME280;42502;40.732;-74.254;2023-07-02T00:19:25;100569.84;;;31.36;39.68
56630;BME280;42502;40.732;-74.254;2023-07-02T00:21:27;100571.91;;;31.36;40.20
56630;BME280;42502;40.732;-74.254;2023-07-02T00:23:29;100569.41;;;31.38;39.73
56630;BME280;42502;40.732;-74.254;2023-07-02T00:25:30;100562.56;;;31.35;39.61
56630;BME280;42502;40.732;-74.254;2023-07-02T00:27:31;100564.56;;;31.35;40.04
56630;BME280;42502;40.732;-74.254;2023-07-02T00:29:31;100573.13;;;31.35;40.11
56630;BME280;42502;40.732;-74.254;2023-07-02T00:31:32;100574.00;;;31.32;39.67
56630;BME280;42502;40.732;-74.254;2023-07-02T00:33:33;100576.00;;;31.35;39.94
56630;BME280;42502;40.732;-74.254;2023-07-02T00:35:34;100580.91;;;31.34;39.94
56630;BME280;42502;40.732;-74.254;2023-07-02T00:37:35;100571.53;;;31.34;39.89
56630;BME280;42502;40.732;-74.254;2023-07-02T00:39:36;100559.31;;;31.33;39.98
56630;BME280;42502;40.732;-74.254;2023-07-02T00:41:37;100562.16;;;31.33;39.93
56630;BME280;42502;40.732;-74.254;2023-07-02T00:43:38;100547.88;;;31.33;39.61
56630;BME280;42502;40.732;-74.254;2023-07-02T00:45:44;100541.38;;;31.33;40.01
56630;BME280;42502;40.732;-74.254;2023-07-02T00:47:46;100540.59;;;31.32;39.45
56630;BME280;42502;40.732;-74.254;2023-07-02T00:49:47;100534.88;;;31.32;39.77
56630;BME280;42502;40.732;-74.254;2023-07-02T00:51:48;100530.41;;;31.31;39.74
56630;BME280;42502;40.732;-74.254;2023-07-02T00:53:51;100534.88;;;31.32;39.77
56630;BME280;42502;40.732;-74.254;2023-07-02T00:55:55;100534.03;;;31.32;39.89
56630;BME280;42502;40.732;-74.254;2023-07-02T00:57:56;100530.00;;;31.29;39.66
56630;BME280;42502;40.732;-74.254;2023-07-02T00:59:57;100535.72;;;31.29;39.48
56630;BME280;42502;40.732;-74.254;2023-07-02T01:02:00;100531.25;;;31.28;39.64
56630;BME280;42502;40.732;-74.254;2023-07-02T01:04:07;100542.69;;;31.28;39.96
56630;BME280;42502;40.732;-74.254;2023-07-02T01:06:13;100554.09;;;31.28;39.48
56630;BME280;42502;40.732;-74.254;2023-07-02T01:08:14;100556.94;;;31.28;39.31
56630;BME280;42502;40.732;-74.254;2023-07-02T01:10:16;100566.75;;;31.27;39.57
56630;BME280;42502;40.732;-74.254;2023-07-02T01:12:17;100568.41;;;31.25;39.96
56630;BME280;42502;40.732;-74.254;2023-07-02T01:16:29;100587.94;;;31.26;40.08
56630;BME280;42502;40.732;-74.254;2023-07-02T01:18:33;100582.25;;;31.26;40.02
56630;BME280;42502;40.732;-74.254;2023-07-02T01:20:34;100572.88;;;31.26;39.49
56630;BME280;42502;40.732;-74.254;2023-07-02T01:22:37;100569.22;;;31.25;40.02
56630;BME280;42502;40.732;-74.254;2023-07-02T01:24:39;100560.78;;;31.18;39.54
56630;BME280;42502;40.732;-74.254;2023-07-02T01:26:40;100576.16;;;31.24;39.88
56630;BME280;42502;40.732;-74.254;2023-07-02T01:28:41;100579.81;;;31.25;39.66
56630;BME280;42502;40.732;-74.254;2023-07-02T01:30:42;100572.50;;;31.24;40.04
56630;BME280;42502;40.732;-74.254;2023-07-02T01:32:43;100563.13;;;31.23;39.88
56630;BME280;42502;40.732;-74.254;2023-07-02T01:34:43;100561.91;;;31.24;40.83
56630;BME280;42502;40.732;-74.254;2023-07-02T01:36:44;100552.53;;;31.24;40.78
56630;BME280;42502;40.732;-74.254;2023-07-02T01:38:45;100562.81;;;31.17;40.09
56630;BME280;42502;40.732;-74.254;2023-07-02T01:40:46;100549.91;;;31.09;39.12
56630;BME280;42502;40.732;-74.254;2023-07-02T01:42:47;100561.88;;;31.00;38.56
56630;BME280;42502;40.732;-74.254;2023-07-02T01:44:48;100556.66;;;30.92;38.04
56630;BME280;42502;40.732;-74.254;2023-07-02T01:46:51;100542.66;;;30.74;37.79
56630;BME280;42502;40.732;-74.254;2023-07-02T01:48:53;100554.84;;;30.74;37.61
56630;BME280;42502;40.732;-74.254;2023-07-02T01:50:53;100561.91;;;30.66;37.38
56630;BME280;42502;40.732;-74.254;2023-07-02T01:52:54;100549.78;;;30.58;37.01
56630;BME280;42502;40.732;-74.254;2023-07-02T01:54:55;100551.50;;;30.52;36.43
56630;BME280;42502;40.732;-74.254;2023-07-02T01:56:56;100547.50;;;30.46;36.25
56630;BME280;42502;40.732;-74.254;2023-07-02T01:58:58;100545.50;;;30.39;36.29
56630;BME280;42502;40.732;-74.254;2023-07-02T02:00:59;100552.91;;;30.33;35.59
56630;BME280;42502;40.732;-74.254;2023-07-02T02:02:59;100555.84;;;30.26;35.90
56630;BME280;42502;40.732;-74.254;2023-07-02T02:05:00;100554.28;;;30.21;35.39
56630;BME280;42502;40.732;-74.254;2023-07-02T02:07:02;100549.47;;;30.15;35.14
56630;BME280;42502;40.732;-74.254;2023-07-02T02:09:04;100557.28;;;30.07;35.51
56630;BME280;42502;40.732;-74.254;2023-07-02T02:11:05;100547.97;;;30.03;34.94
56630;BME280;42502;40.732;-74.254;2023-07-02T02:13:06;100543.59;;;29.94;34.88
56630;BME280;42502;40.732;-74.254;2023-07-02T02:15:07;100546.03;;;29.92;35.24
56630;BME280;42502;40.732;-74.254;2023-07-02T02:17:07;100548.16;;;29.85;34.66
56630;BME280;42502;40.732;-74.254;2023-07-02T02:19:08;100545.75;;;29.80;35.05
56630;BME280;42502;40.732;-74.254;2023-07-02T02:21:09;100536.84;;;29.74;34.96
56630;BME280;42502;40.732;-74.254;2023-07-02T02:23:10;100542.59;;;29.70;34.82
56630;BME280;42502;40.732;-74.254;2023-07-02T02:25:10;100536.13;;;29.66;34.29
56630;BME280;42502;40.732;-74.254;2023-07-02T02:27:11;100537.38;;;29.62;34.29
56630;BME280;42502;40.732;-74.254;2023-07-02T02:29:12;100537.84;;;29.56;34.62
56630;BME280;42502;40.732;-74.254;2023-07-02T02:31:16;100533.84;;;29.50;34.34
56630;BME280;42502;40.732;-74.254;2023-07-02T02:33:17;100541.16;;;29.48;34.30
56630;BME280;42502;40.732;-74.254;2023-07-02T02:35:21;100540.81;;;29.42;34.37
56630;BME280;42502;40.732;-74.254;2023-07-02T02:37:22;100545.28;;;29.39;34.26
56630;BME280;42502;40.732;-74.254;2023-07-02T02:39:23;100544.94;;;29.34;34.64
56630;BME280;42502;40.732;-74.254;2023-07-02T02:41:24;100536.84;;;29.29;34.24
56630;BME280;42502;40.732;-74.254;2023-07-02T02:43:25;100540.16;;;29.23;34.39
56630;BME280;42502;40.732;-74.254;2023-07-02T02:45:26;100539.31;;;29.19;34.15
56630;BME280;42502;40.732;-74.254;2023-07-02T02:47:27;100545.47;;;29.14;34.14
56630;BME280;42502;40.732;-74.254;2023-07-02T02:49:27;100542.22;;;29.12;34.55
56630;BME280;42502;40.732;-74.254;2023-07-02T02:51:31;100538.19;;;29.10;34.39
56630;BME280;42502;40.732;-74.254;2023-07-02T02:53:34;100547.97;;;29.05;34.55
56630;BME280;42502;40.732;-74.254;2023-07-02T02:55:37;100534.19;;;29.00;34.49
56630;BME280;42502;40.732;-74.254;2023-07-02T02:57:38;100549.22;;;28.97;34.40
56630;BME280;42502;40.732;-74.254;2023-07-02T02:59:39;100541.53;;;28.94;34.23
56630;BME280;42502;40.732;-74.254;2023-07-02T03:01:40;100539.94;;;28.89;34.00
56630;BME280;42502;40.732;-74.254;2023-07-02T03:03:41;100532.28;;;28.82;34.43
56630;BME280;42502;40.732;-74.254;2023-07-02T03:05:45;100529.84;;;28.81;34.13
56630;BME280;42502;40.732;-74.254;2023-07-02T03:07:50;100523.78;;;28.75;34.39
56630;BME280;42502;40.732;-74.254;2023-07-02T03:09:51;100527.84;;;28.74;34.08
56630;BME280;42502;40.732;-74.254;2023-07-02T03:11:54;100526.66;;;28.68;34.49
56630;BME280;42502;40.732;-74.254;2023-07-02T03:14:01;100529.13;;;28.59;34.17
56630;BME280;42502;40.732;-74.254;2023-07-02T03:16:01;100544.53;;;28.65;34.05
56630;BME280;42502;40.732;-74.254;2023-07-02T03:18:05;100545.78;;;28.60;34.21
56630;BME280;42502;40.732;-74.254;2023-07-02T03:20:07;100545.78;;;28.57;34.51
56630;BME280;42502;40.732;-74.254;2023-07-02T11:42:18;100298.94;;;27.00;49.78
56630;BME280;42502;40.732;-74.254;2023-07-02T11:44:21;100290.78;;;27.16;49.15
56630;BME280;42502;40.732;-74.254;2023-07-02T11:46:24;100285.88;;;27.38;48.80
56630;BME280;42502;40.732;-74.254;2023-07-02T11:48:25;100286.97;;;27.66;47.82
56630;BME280;42502;40.732;-74.254;2023-07-02T11:50:26;100288.47;;;27.89;47.37
56630;BME280;42502;40.732;-74.254;2023-07-02T11:52:26;100288.75;;;28.09;46.94
56630;BME280;42502;40.732;-74.254;2023-07-02T11:54:27;100289.06;;;28.25;46.74
56630;BME280;42502;40.732;-74.254;2023-07-02T11:56:28;100289.75;;;28.40;46.28
56630;BME280;42502;40.732;-74.254;2023-07-02T11:58:29;100281.13;;;28.51;45.97
56630;BME280;42502;40.732;-74.254;2023-07-02T12:00:30;100270.50;;;28.59;45.52
56630;BME280;42502;40.732;-74.254;2023-07-02T12:02:30;100276.13;;;28.69;45.55
56630;BME280;42502;40.732;-74.254;2023-07-02T12:04:31;100276.06;;;28.77;44.90
56630;BME280;42502;40.732;-74.254;2023-07-02T12:06:32;100274.38;;;28.83;45.21
56630;BME280;42502;40.732;-74.254;2023-07-02T12:08:33;100277.56;;;28.88;44.96
56630;BME280;42502;40.732;-74.254;2023-07-02T12:10:33;100279.94;;;28.94;45.14
56630;BME280;42502;40.732;-74.254;2023-07-02T12:12:34;100285.63;;;28.97;44.92
56630;BME280;42502;40.732;-74.254;2023-07-02T12:14:35;100276.25;;;29.00;44.65
56630;BME280;42502;40.732;-74.254;2023-07-02T12:16:36;100272.97;;;29.02;44.78
56630;BME280;42502;40.732;-74.254;2023-07-02T12:18:36;100275.38;;;29.03;45.20
56630;BME280;42502;40.732;-74.254;2023-07-02T12:20:38;100276.53;;;29.10;44.53
56630;BME280;42502;40.732;-74.254;2023-07-02T12:22:39;100281.81;;;29.11;44.91
56630;BME280;42502;40.732;-74.254;2023-07-02T12:24:40;100279.34;;;29.13;44.62
56630;BME280;42502;40.732;-74.254;2023-07-02T12:26:40;100276.88;;;29.15;45.15
56630;BME280;42502;40.732;-74.254;2023-07-02T12:28:41;100277.25;;;29.17;45.02
56630;BME280;42502;40.732;-74.254;2023-07-02T12:30:42;100271.94;;;29.19;45.05
56630;BME280;42502;40.732;-74.254;2023-07-02T12:32:44;100270.75;;;29.20;44.63
56630;BME280;42502;40.732;-74.254;2023-07-02T12:34:44;100263.84;;;29.21;44.65
56630;BME280;42502;40.732;-74.254;2023-07-02T12:36:45;100259.75;;;29.22;44.89
56630;BME280;42502;40.732;-74.254;2023-07-02T12:38:46;100263.00;;;29.24;44.49
56630;BME280;42502;40.732;-74.254;2023-07-02T12:40:47;100265.00;;;29.24;44.67
56630;BME280;42502;40.732;-74.254;2023-07-02T12:42:49;100270.69;;;29.24;44.16
56630;BME280;42502;40.732;-74.254;2023-07-02T12:44:50;100263.00;;;29.24;44.12
56630;BME280;42502;40.732;-74.254;2023-07-02T12:46:51;100253.63;;;29.24;44.52
56630;BME280;42502;40.732;-74.254;2023-07-02T12:48:51;100254.03;;;29.26;44.44
56630;BME280;42502;40.732;-74.254;2023-07-02T12:50:56;100245.53;;;29.22;44.71
56630;BME280;42502;40.732;-74.254;2023-07-02T12:52:57;100247.91;;;29.28;44.77
56630;BME280;42502;40.732;-74.254;2023-07-02T12:54:58;100241.41;;;29.27;44.75
56630;BME280;42502;40.732;-74.254;2023-07-02T12:56:59;100240.59;;;29.27;44.34
56630;BME280;42502;40.732;-74.254;2023-07-02T12:59:02;100239.38;;;29.28;44.67
56630;BME280;42502;40.732;-74.254;2023-07-02T13:01:03;100230.00;;;29.31;44.74
56630;BME280;42502;40.732;-74.254;2023-07-02T13:03:03;100232.03;;;29.30;44.65
56630;BME280;42502;40.732;-74.254;2023-07-02T13:05:04;100242.19;;;29.31;44.44
56630;BME280;42502;40.732;-74.254;2023-07-02T13:07:06;100240.56;;;29.30;44.23
56630;BME280;42502;40.732;-74.254;2023-07-02T13:09:07;100239.31;;;29.31;44.53
56630;BME280;42502;40.732;-74.254;2023-07-02T13:11:08;100250.28;;;29.33;44.52
56630;BME280;42502;40.732;-74.254;2023-07-02T13:13:09;100247.88;;;29.31;44.38
56630;BME280;42502;40.732;-74.254;2023-07-02T13:15:10;100251.50;;;29.32;44.47
56630;BME280;42502;40.732;-74.254;2023-07-02T13:17:12;100255.19;;;29.32;44.33
56630;BME280;42502;40.732;-74.254;2023-07-02T13:19:13;100243.81;;;29.29;44.19
56630;BME280;42502;40.732;-74.254;2023-07-02T13:21:15;100255.19;;;29.32;44.57
56630;BME280;42502;40.732;-74.254;2023-07-02T13:23:16;100261.66;;;29.33;44.31
56630;BME280;42502;40.732;-74.254;2023-07-02T13:25:17;100258.81;;;29.33;44.81
56630;BME280;42502;40.732;-74.254;2023-07-02T13:27:18;100257.59;;;29.34;44.65
56630;BME280;42502;40.732;-74.254;2023-07-02T13:29:19;100255.97;;;29.33;44.43
56630;BME280;42502;40.732;-74.254;2023-07-02T13:31:20;100259.63;;;29.33;44.35
56630;BME280;42502;40.732;-74.254;2023-07-02T13:33:21;100257.59;;;29.34;44.39
56630;BME280;42502;40.732;-74.254;2023-07-02T13:35:21;100255.53;;;29.34;44.40
56630;BME280;42502;40.732;-74.254;2023-07-02T13:37:23;100251.91;;;29.34;44.45
56630;BME280;42502;40.732;-74.254;2023-07-02T13:39:23;100247.00;;;29.34;44.92
56630;BME280;42502;40.732;-74.254;2023-07-02T13:41:24;100252.69;;;29.34;44.38
56630;BME280;42502;40.732;-74.254;2023-07-02T13:43:26;100248.63;;;29.35;44.86
56630;BME280;42502;40.732;-74.254;2023-07-02T13:45:27;100249.44;;;29.36;44.44
56630;BME280;42502;40.732;-74.254;2023-07-02T13:47:28;100242.13;;;29.35;44.51
56630;BME280;42502;40.732;-74.254;2023-07-02T13:49:30;100249.44;;;29.36;44.43
56630;BME280;42502;40.732;-74.254;2023-07-02T13:51:31;100248.63;;;29.35;44.77
56630;BME280;42502;40.732;-74.254;2023-07-02T13:53:32;100243.75;;;29.36;44.83
56630;BME280;42502;40.732;-74.254;2023-07-02T13:55:32;100241.69;;;29.36;44.82
56630;BME280;42502;40.732;-74.254;2023-07-02T13:57:33;100238.84;;;29.36;44.53
56630;BME280;42502;40.732;-74.254;2023-07-02T13:59:34;100239.66;;;29.37;44.67
56630;BME280;42502;40.732;-74.254;2023-07-02T14:01:35;100236.06;;;29.33;44.85
56630;BME280;42502;40.732;-74.254;2023-07-02T14:03:36;100248.22;;;29.37;44.87
56630;BME280;42502;40.732;-74.254;2023-07-02T14:05:36;100246.16;;;29.37;44.84
56630;BME280;42502;40.732;-74.254;2023-07-02T14:07:37;100246.97;;;29.38;44.85
56630;BME280;42502;40.732;-74.254;2023-07-02T14:09:38;100255.88;;;29.40;44.56
56630;BME280;42502;40.732;-74.254;2023-07-02T14:11:40;100253.03;;;29.40;44.67
56630;BME280;42502;40.732;-74.254;2023-07-02T14:13:41;100258.31;;;29.41;45.21
56630;BME280;42502;40.732;-74.254;2023-07-02T14:15:42;100256.25;;;29.42;45.14
56630;BME280;42502;40.732;-74.254;2023-07-02T14:17:43;100259.91;;;29.42;44.78
56630;BME280;42502;40.732;-74.254;2023-07-02T14:19:44;100258.31;;;29.41;45.39
56630;BME280;42502;40.732;-74.254;2023-07-02T14:21:45;100258.25;;;29.45;45.32
56630;BME280;42502;40.732;-74.254;2023-07-02T14:23:46;100248.50;;;29.46;44.96
56630;BME280;42502;40.732;-74.254;2023-07-02T14:25:47;100256.63;;;29.44;44.96
56630;BME280;42502;40.732;-74.254;2023-07-02T14:27:48;100254.19;;;29.46;45.21
56630;BME280;42502;40.732;-74.254;2023-07-02T14:29:49;100249.28;;;29.47;45.09
56630;BME280;42502;40.732;-74.254;2023-07-02T14:31:50;100252.13;;;29.47;45.31
56630;BME280;42502;40.732;-74.254;2023-07-02T14:33:50;100256.22;;;29.46;45.23
56630;BME280;42502;40.732;-74.254;2023-07-02T14:35:51;100253.38;;;29.46;45.30
56630;BME280;42502;40.732;-74.254;2023-07-02T14:37:52;100254.56;;;29.48;44.98
56630;BME280;42502;40.732;-74.254;2023-07-02T14:39:53;100249.69;;;29.49;45.20
56630;BME280;42502;40.732;-74.254;2023-07-02T14:41:54;100255.81;;;29.47;45.04
56630;BME280;42502;40.732;-74.254;2023-07-02T14:43:54;100247.25;;;29.47;45.46
56630;BME280;42502;40.732;-74.254;2023-07-02T14:46:01;100251.72;;;29.48;45.10
56630;BME280;42502;40.732;-74.254;2023-07-02T14:48:02;100251.72;;;29.48;45.47
56630;BME280;42502;40.732;-74.254;2023-07-02T14:50:04;100246.44;;;29.47;45.16
56630;BME280;42502;40.732;-74.254;2023-07-02T14:52:05;100256.16;;;29.49;45.63
56630;BME280;42502;40.732;-74.254;2023-07-02T14:54:07;100250.47;;;29.49;45.69
56630;BME280;42502;40.732;-74.254;2023-07-02T14:56:07;100251.72;;;29.48;45.16
56630;BME280;42502;40.732;-74.254;2023-07-02T14:58:10;100237.19;;;29.39;45.79
56630;BME280;42502;40.732;-74.254;2023-07-02T15:00:11;100249.25;;;29.50;45.76
56630;BME280;42502;40.732;-74.254;2023-07-02T15:02:13;100249.72;;;29.45;45.31
56630;BME280;42502;40.732;-74.254;2023-07-02T15:04:16;100250.47;;;29.49;45.56
56630;BME280;42502;40.732;-74.254;2023-07-02T15:06:20;100251.28;;;29.50;45.61
56630;BME280;42502;40.732;-74.254;2023-07-02T15:08:21;100248.06;;;29.48;45.04
56630;BME280;42502;40.732;-74.254;2023-07-02T15:10:22;100253.69;;;29.51;45.35
56630;BME280;42502;40.732;-74.254;2023-07-02T15:12:23;100246.41;;;29.50;45.30
56630;BME280;42502;40.732;-74.254;2023-07-02T15:14:24;100247.56;;;29.53;45.52
56630;BME280;42502;40.732;-74.254;2023-07-02T15:16:25;100247.56;;;29.53;45.35
56630;BME280;42502;40.732;-74.254;2023-07-02T15:18:27;100237.81;;;29.54;45.27
56630;BME280;42502;40.732;-74.254;2023-07-02T15:20:28;100235.41;;;29.52;44.82
56630;BME280;42502;40.732;-74.254;2023-07-02T15:22:29;100245.97;;;29.52;44.99
56630;BME280;42502;40.732;-74.254;2023-07-02T15:24:29;100240.22;;;29.55;44.81
56630;BME280;42502;40.732;-74.254;2023-07-02T15:26:30;100241.03;;;29.56;45.20
56630;BME280;42502;40.732;-74.254;2023-07-02T15:28:34;100236.97;;;29.57;44.77
56630;BME280;42502;40.732;-74.254;2023-07-02T15:30:42;100237.75;;;29.57;45.05
56630;BME280;42502;40.732;-74.254;2023-07-02T15:32:43;100237.31;;;29.59;45.14
56630;BME280;42502;40.732;-74.254;2023-07-02T15:34:43;100228.78;;;29.59;44.73
56630;BME280;42502;40.732;-74.254;2023-07-02T15:36:44;100233.63;;;29.62;44.88
56630;BME280;42502;40.732;-74.254;2023-07-02T15:38:45;100236.47;;;29.62;44.73
56630;BME280;42502;40.732;-74.254;2023-07-02T15:40:47;100239.72;;;29.64;44.76
56630;BME280;42502;40.732;-74.254;2023-07-02T15:42:51;100240.50;;;29.65;45.03
56630;BME280;42502;40.732;-74.254;2023-07-02T15:44:52;100234.81;;;29.65;45.06
56630;BME280;42502;40.732;-74.254;2023-07-02T15:46:53;100228.34;;;29.60;44.83
56630;BME280;42502;40.732;-74.254;2023-07-02T15:48:54;100229.50;;;29.67;44.98
56630;BME280;42502;40.732;-74.254;2023-07-02T15:50:55;100229.50;;;29.67;44.54
56630;BME280;42502;40.732;-74.254;2023-07-02T15:52:59;100238.44;;;29.69;44.33
56630;BME280;42502;40.732;-74.254;2023-07-02T15:54:59;100236.38;;;29.69;44.57
56630;BME280;42502;40.732;-74.254;2023-07-02T15:57:00;100230.75;;;29.66;44.78
56630;BME280;42502;40.732;-74.254;2023-07-02T15:59:02;100240.41;;;29.72;44.49
56630;BME280;42502;40.732;-74.254;2023-07-02T16:01:14;100238.03;;;29.67;44.78
56630;BME280;42502;40.732;-74.254;2023-07-02T16:03:15;100248.09;;;29.75;44.87
56630;BME280;42502;40.732;-74.254;2023-07-02T16:05:16;100243.19;;;29.75;44.31
56630;BME280;42502;40.732;-74.254;2023-07-02T16:07:17;100234.22;;;29.77;44.33
56630;BME280;42502;40.732;-74.254;2023-07-02T16:09:18;100240.75;;;29.77;44.32
56630;BME280;42502;40.732;-74.254;2023-07-02T16:11:19;100238.69;;;29.78;44.53
56630;BME280;42502;40.732;-74.254;2023-07-02T16:13:19;100239.06;;;29.80;44.45
56630;BME280;42502;40.732;-74.254;2023-07-02T16:15:20;100229.31;;;29.81;44.72
56630;BME280;42502;40.732;-74.254;2023-07-02T16:17:21;100233.78;;;29.78;44.61
56630;BME280;42502;40.732;-74.254;2023-07-02T16:19:22;100237.44;;;29.83;44.60
56630;BME280;42502;40.732;-74.254;2023-07-02T16:21:23;100229.25;;;29.85;44.77
56630;BME280;42502;40.732;-74.254;2023-07-02T16:23:24;100240.22;;;29.86;44.51
56630;BME280;42502;40.732;-74.254;2023-07-02T16:25:25;100239.00;;;29.87;44.38
56630;BME280;42502;40.732;-74.254;2023-07-02T16:27:26;100236.50;;;29.89;44.30
56630;BME280;42502;40.732;-74.254;2023-07-02T16:29:28;100236.91;;;29.91;44.86
56630;BME280;42502;40.732;-74.254;2023-07-02T16:31:30;100234.06;;;29.91;44.96
56630;BME280;42502;40.732;-74.254;2023-07-02T16:33:31;100227.09;;;29.92;44.67
56630;BME280;42502;40.732;-74.254;2023-07-02T16:35:36;100232.38;;;29.94;44.76
56630;BME280;42502;40.732;-74.254;2023-07-02T16:37:36;100223.41;;;29.95;44.52
56630;BME280;42502;40.732;-74.254;2023-07-02T16:39:37;100226.22;;;29.99;44.37
56630;BME280;42502;40.732;-74.254;2023-07-02T16:41:38;100213.63;;;29.97;44.95
56630;BME280;42502;40.732;-74.254;2023-07-02T16:43:46;100221.38;;;29.96;43.44
56630;BME280;42502;40.732;-74.254;2023-07-02T16:45:51;100216.16;;;29.91;43.56
56630;BME280;42502;40.732;-74.254;2023-07-02T16:47:55;100211.31;;;29.88;42.31
56630;BME280;42502;40.732;-74.254;2023-07-02T16:50:02;100211.38;;;29.84;42.31
56630;BME280;42502;40.732;-74.254;2023-07-02T16:52:03;100202.91;;;29.81;41.75
56630;BME280;42502;40.732;-74.254;2023-07-02T16:54:04;100211.44;;;29.77;41.47
56630;BME280;42502;40.732;-74.254;2023-07-02T16:56:05;100210.31;;;29.71;41.35
56630;BME280;42502;40.732;-74.254;2023-07-02T16:58:07;100210.06;;;29.62;41.16
56630;BME280;42502;40.732;-74.254;2023-07-02T17:00:08;100208.50;;;29.57;41.06
56630;BME280;42502;40.732;-74.254;2023-07-02T17:02:11;100230.06;;;29.54;40.99
56630;BME280;42502;40.732;-74.254;2023-07-02T17:04:15;100209.44;;;29.47;40.77
56630;BME280;42502;40.732;-74.254;2023-07-02T17:06:16;100224.09;;;29.45;40.94
56630;BME280;42502;40.732;-74.254;2023-07-02T17:08:17;100216.06;;;29.40;40.34
56630;BME280;42502;40.732;-74.254;2023-07-02T17:10:17;100214.50;;;29.35;40.36
56630;BME280;42502;40.732;-74.254;2023-07-02T17:12:21;100216.16;;;29.33;40.46
56630;BME280;42502;40.732;-74.254;2023-07-02T17:14:23;100205.63;;;29.30;40.71
56630;BME280;42502;40.732;-74.254;2023-07-02T17:16:24;100198.38;;;29.25;40.15
56630;BME280;42502;40.732;-74.254;2023-07-02T17:18:25;100202.50;;;29.20;40.77
56630;BME280;42502;40.732;-74.254;2023-07-02T17:20:26;100200.03;;;29.19;40.59
56630;BME280;42502;40.732;-74.254;2023-07-02T17:22:29;100203.31;;;29.17;40.92
56630;BME280;42502;40.732;-74.254;2023-07-02T17:24:32;100203.75;;;29.12;41.10
56630;BME280;42502;40.732;-74.254;2023-07-02T17:26:36;100187.94;;;29.11;40.74
56630;BME280;42502;40.732;-74.254;2023-07-02T17:28:40;100178.16;;;29.12;40.97
56630;BME280;42502;40.732;-74.254;2023-07-02T17:30:41;100182.25;;;29.11;40.39
56630;BME280;42502;40.732;-74.254;2023-07-02T17:32:42;100183.91;;;29.09;40.75
56630;BME280;42502;40.732;-74.254;2023-07-02T17:34:45;100166.91;;;29.05;40.52
56630;BME280;42502;40.732;-74.254;2023-07-02T17:36:52;100166.09;;;29.04;40.81
56630;BME280;42502;40.732;-74.254;2023-07-02T17:38:53;100170.19;;;29.03;41.17
56630;BME280;42502;40.732;-74.254;2023-07-02T17:40:53;100161.25;;;29.01;40.88
56630;BME280;42502;40.732;-74.254;2023-07-02T17:42:54;100166.13;;;29.01;40.93
56630;BME280;42502;40.732;-74.254;2023-07-02T17:44:55;100148.31;;;28.97;40.62
56630;BME280;42502;40.732;-74.254;2023-07-02T17:47:01;100155.63;;;28.98;40.59
56630;BME280;42502;40.732;-74.254;2023-07-02T17:49:05;100141.03;;;28.96;40.96
56630;BME280;42502;40.732;-74.254;2023-07-02T17:51:07;100132.97;;;28.91;40.66
56630;BME280;42502;40.732;-74.254;2023-07-02T17:53:07;100133.34;;;28.93;41.19
56630;BME280;42502;40.732;-74.254;2023-07-02T17:55:08;100127.66;;;28.93;40.55
56630;BME280;42502;40.732;-74.254;2023-07-02T17:57:11;100123.63;;;28.90;40.81
56630;BME280;42502;40.732;-74.254;2023-07-02T17:59:12;100119.59;;;28.87;40.66
56630;BME280;42502;40.732;-74.254;2023-07-02T18:01:16;100109.50;;;28.83;40.50
56630;BME280;42502;40.732;-74.254;2023-07-02T18:03:17;100118.44;;;28.85;40.33
56630;BME280;42502;40.732;-74.254;2023-07-02T18:05:18;100110.69;;;28.85;40.52
56630;BME280;42502;40.732;-74.254;2023-07-02T18:07:21;100117.22;;;28.82;40.31
56630;BME280;42502;40.732;-74.254;2023-07-02T18:09:22;100101.41;;;28.81;40.73
56630;BME280;42502;40.732;-74.254;2023-07-02T18:11:23;100108.31;;;28.80;40.45
56630;BME280;42502;40.732;-74.254;2023-07-02T18:13:24;100107.50;;;28.80;40.77
56630;BME280;42502;40.732;-74.254;2023-07-02T18:15:25;100094.22;;;28.73;40.87
56630;BME280;42502;40.732;-74.254;2023-07-02T18:17:26;100113.25;;;28.76;40.39
56630;BME280;42502;40.732;-74.254;2023-07-02T18:19:27;100110.84;;;28.71;40.32
56630;BME280;42502;40.732;-74.254;2023-07-02T18:21:29;100106.38;;;28.74;40.54
56630;BME280;42502;40.732;-74.254;2023-07-02T18:23:30;100116.94;;;28.73;40.54
56630;BME280;42502;40.732;-74.254;2023-07-02T18:25:31;100113.69;;;28.71;39.84
56630;BME280;42502;40.732;-74.254;2023-07-02T18:27:32;100102.81;;;28.66;39.99
56630;BME280;42502;40.732;-74.254;2023-07-02T18:29:34;100112.97;;;28.67;40.05
56630;BME280;42502;40.732;-74.254;2023-07-02T18:31:35;100114.97;;;28.66;40.24
56630;BME280;42502;40.732;-74.254;2023-07-02T18:33:35;100115.41;;;28.65;40.58
56630;BME280;42502;40.732;-74.254;2023-07-02T18:35:36;100102.47;;;28.60;40.64
56630;BME280;42502;40.732;-74.254;2023-07-02T18:37:37;100114.22;;;28.62;40.09
56630;BME280;42502;40.732;-74.254;2023-07-02T18:39:40;100119.09;;;28.62;40.20
56630;BME280;42502;40.732;-74.254;2023-07-02T18:41:41;100114.66;;;28.61;40.20